Metar Cercanos

 

LEPA - Palma De Mallorc, Spain
Distance from station: ONO 38km
Actualización: Mon, 15-Jul-2024 7:30am CEST
Muy nuboso
Muy nuboso
 Viento del varies
Viento: varies 4 km/h
Temperatura: 25°C
Rocío: 22°C
Humedad: 83%
Barómetro: 1013 hPa
Clouds: Muy nuboso
Visibility: 10 km
Cloud details: Muy nuboso 610 m
2024/07/15 05:30 LEPA 150530Z VRB02KT 9999 BKN020 25/22 Q1013 NOSIG
LEMH - Mahon/Menorca Is, Spain
Distance from station: ENE 105km
Actualización: Mon, 15-Jul-2024 7:30am CEST
Muy nuboso
Muy nuboso
 Viento del S
Viento: S 7 km/h
Temperatura: 24°C
Rocío: 20°C
Humedad: 78%
Barómetro: 1013 hPa
Clouds: Muy nuboso
Visibility: 10 km
Cloud details: Muy nuboso 610 m
2024/07/15 05:30 LEMH 150530Z 19004KT 170V230 9999 BKN020 24/20 Q1013
 
LEIB - Ibiza/Es Codola, Spain
Distance from station: OSO 165km
Actualización: Mon, 15-Jul-2024 7:30am CEST
Parcialmente nuboso
Parcialmente nuboso
 Viento del SO
Viento: SO 9 km/h
Temperatura: 24°C
Rocío: 22°C
Humedad: 89%
Barómetro: 1012 hPa
Clouds: Parcialmente nuboso
Visibility: 10 km
Cloud details: Parcialmente nuboso 427 m
2024/07/15 05:30 LEIB 150530Z 23005KT 9999 SCT014 24/22 Q1012 NOSIG
LEBL - Barcelona Airpor, Spain
Distance from station: NNO 225km
Actualización: Mon, 15-Jul-2024 7:30am CEST
Muy nuboso
Muy nuboso
 Viento del NO
Viento: NO 6 km/h
Temperatura: 23°C
Rocío: 20°C
Humedad: 83%
Barómetro: 1012 hPa
Clouds: Muy nuboso
Visibility: 10 km
Cloud details: Few Clouds 335 m
Parcialmente nuboso 488 m
Muy nuboso 884 m
2024/07/15 05:30 LEBL 150530Z 32003KT 260V020 9999 FEW011 SCT016 BKN029 23/20 Q1012 NOSIG
 
LEVC - Valencia (civ/Mi, Spain
Distance from station: NO 188km
Actualización: Mon, 15-Jul-2024 7:30am CEST
Few Clouds
Few Clouds
 Viento del NNO
Viento: NNO 7 km/h
Temperatura: 22°C
Rocío: 21°C
Humedad: 94%
Barómetro: 1012 hPa
Clouds: Few Clouds
Visibility: 10 km
Cloud details: Few Clouds 305 m
2024/07/15 05:30 LEVC 150530Z 33004KT 9999 FEW010 22/21 Q1012 NOSIG
LEGE - Gerona/Costa Bra, Spain
Distance from station: N 276km
Actualización: Mon, 15-Jul-2024 7:51am CEST
Patches of fog, Parcialmente nuboso
Patches of fog, Parcialmente nuboso
 Viento del varies
Viento: varies 2 km/h
Temperatura: 20°C
Rocío: 20°C
Humedad: 100%
Barómetro: 1012 hPa
Resumen: Patches of Fog
Clouds: Parcialmente nuboso
Visibility: 5 km
Cloud details: Parcialmente nuboso 61 m
2024/07/15 05:51 LEGE 150551Z VRB01KT 5000 1000S R19/P2000 R01/1100U BCFG SCT002 20/20 Q1012 NOSIG
 
LEAL - Alicante/El Alte, Spain
Distance from station: OSO 344km
Actualización: Mon, 15-Jul-2024 7:30am CEST
Despejado
Despejado
 Viento del varies
Viento: varies 4 km/h
Temperatura: 23°C
Rocío: 20°C
Humedad: 83%
Barómetro: 1012 hPa
Resumen: Despejado
Visibility: greater than 10 km
2024/07/15 05:30 LEAL 150530Z VRB02KT CAVOK 23/20 Q1012 NOSIG
LEAM - Almeria Airport, Spain
Distance from station: SSO 56km
Actualización: Mon, 15-Jul-2024 7:30am CEST
Muy nuboso
Muy nuboso
 Viento del calm
Viento: Calma
Temperatura: 23°C
Rocío: 22°C
Humedad: 94%
Barómetro: 1013 hPa
Clouds: Muy nuboso
Visibility: 8 km
Cloud details: Muy nuboso 305 m
2024/07/15 05:30 LEAM 150530Z 00000KT 8000 BKN010 23/22 Q1013
 
LEZG - Zaragoza (mil/Ci, Spain
Distance from station: NO 431km
Actualización: Mon, 15-Jul-2024 7:30am CEST
Despejado
Despejado
 Viento del ENE
Viento: ENE 4 km/h
Temperatura: 22°C
Rocío: 20°C
Humedad: 88%
Barómetro: 1012 hPa
Resumen: Despejado
Visibility: greater than 10 km
2024/07/15 05:30 LEZG 150530Z 06002KT CAVOK 22/20 Q1012 NOSIG
LEMD - Madrid/Barajas, Spain
Distance from station: ONO 234km
Actualización: Mon, 15-Jul-2024 7:30am CEST
Despejado
Despejado
 Viento del S
Viento: S 15 km/h
Temperatura: 22°C
Rocío: 13°C
Humedad: 57%
Barómetro: 1015 hPa
Resumen: Despejado
Visibility: greater than 10 km
2024/07/15 05:30 LEMD 150530Z 18008KT 140V220 CAVOK 22/13 Q1015 NOSIG
 
LEGR - Granada Airport, Spain
Distance from station: OSO 62km
Actualización: Mon, 15-Jul-2024 7:30am CEST
Despejado
Despejado
 Viento del OSO
Viento: OSO 6 km/h
Temperatura: 16°C
Rocío: 6°C
Humedad: 52%
Barómetro: 1017 hPa
Resumen: Despejado
Visibility: greater than 10 km
2024/07/15 05:30 LEGR 150530Z 25003KT CAVOK 16/06 Q1017
LEMG - Malaga (civ/Mil), Spain
Distance from station: OSO 227km
Actualización: Mon, 15-Jul-2024 7:30am CEST
Despejado
Despejado
 Viento del E
Viento: E 6 km/h
Temperatura: 21°C
Rocío: 15°C
Humedad: 69%
Barómetro: 1013 hPa
Resumen: Despejado
Visibility: greater than 10 km
2024/07/15 05:30 LEMG 150530Z 10003KT CAVOK 21/15 Q1013 NOSIG
 
LEZL - Sevilla (civ/Mil, Spain
Distance from station: S 318km
Actualización: Mon, 15-Jul-2024 7:30am CEST
Despejado
Despejado
 Viento del OSO
Viento: OSO 7 km/h
Temperatura: 19°C
Rocío: 13°C
Humedad: 68%
Barómetro: 1015 hPa
Resumen: Despejado
Visibility: greater than 10 km
2024/07/15 05:30 LEZL 150530Z 24004KT CAVOK 19/13 Q1015 NOSIG
LEVT - Vitoria, Spain
Distance from station: NO 226km
Actualización: Mon, 15-Jul-2024 7:30am CEST
Despejado
Despejado
 Viento del SSO
Viento: SSO 6 km/h
Temperatura: 15°C
Rocío: 15°C
Humedad: 100%
Barómetro: 1012 hPa
Resumen: Despejado
Visibility: greater than 10 km
2024/07/15 05:30 LEVT 150530Z 20003KT 150V280 CAVOK 15/15 Q1012
 
LEBB - Bilbao/Sondica, Spain
Distance from station: NNO 235km
Actualización: Mon, 15-Jul-2024 7:30am CEST
Despejado
Despejado
 Viento del ESE
Viento: ESE 7 km/h
Temperatura: 19°C
Rocío: 18°C
Humedad: 94%
Barómetro: 1008 hPa
Resumen: Despejado
Visibility: greater than 10 km
2024/07/15 05:30 LEBB 150530Z 11004KT 070V170 CAVOK 19/18 Q1008 NOSIG
LESO - San Sebastian/Fu, Spain
Distance from station: N 231km
Actualización: Mon, 15-Jul-2024 7:30am CEST
Despejado
Despejado
 Viento del SSO
Viento: SSO 11 km/h
Temperatura: 19°C
Rocío: 18°C
Humedad: 94%
Barómetro: 1008 hPa
Resumen: Despejado
Visibility: greater than 10 km
2024/07/15 05:30 LESO 150530Z 20006KT CAVOK 19/18 Q1008
 
LEVD - Valladolid(Mil/C, Spain
Distance from station: ONO 239km
Actualización: Mon, 15-Jul-2024 7:30am CEST
Lluvia, Muy nuboso
Lluvia, Muy nuboso
 Viento del OSO
Viento: OSO 17 km/h
Temperatura: 16°C
Rocío: 15°C
Humedad: 94%
Barómetro: 1015 hPa
Resumen: Lluvia
Clouds: Muy nuboso
Visibility: 8 km
Cloud details: Parcialmente nuboso 457 m
Muy nuboso 914 m
2024/07/15 05:30 LEVD 150530Z 24009KT 210V280 8000 RA SCT015 BKN030 16/15 Q1015 NOSIG
LESA - Salamanca (civ/M, Spain
Distance from station: ONO 349km
Actualización: Mon, 15-Jul-2024 7:30am CEST
Lluvia débil, Parcialmente nuboso
Lluvia débil, Parcialmente nuboso
 Viento del calm
Viento: Calma
Temperatura: 17°C
Rocío: 15°C
Humedad: 88%
Barómetro: 1015 hPa
Resumen: Lluvia débil
Clouds: Parcialmente nuboso
Visibility: 10 km
2024/07/15 05:30 LESA 150530Z 00000KT 9999 -RA NSC 17/15 Q1015
 
LEXJ - Santander/Paraya, Spain
Distance from station: NNO 247km
Actualización: Mon, 15-Jul-2024 7:30am CEST
Few Clouds
Few Clouds
 Viento del O
Viento: O 6 km/h
Temperatura: 20°C
Rocío: 18°C
Humedad: 88%
Barómetro: 1008 hPa
Clouds: Few Clouds
Visibility: 10 km
Cloud details: Few Clouds 1524 m
2024/07/15 05:30 LEXJ 150530Z 27003KT 230V290 9999 FEW050 20/18 Q1008
LEAS - Asturias/Aviles, Spain
Distance from station: NO 214km
Actualización: Mon, 15-Jul-2024 7:30am CEST
Muy nuboso
Muy nuboso
 Viento del ONO
Viento: ONO 24 km/h
Temperatura: 17°C
Rocío: 14°C
Humedad: 83%
Barómetro: 1010 hPa
Clouds: Muy nuboso
Visibility: 10 km
Cloud details: Few Clouds 91 m
Muy nuboso 518 m
2024/07/15 05:30 LEAS 150530Z 30013KT 270V330 9999 FEW003 BKN017 17/14 Q1010 NOSIG
 
LECO - La Coruna/Alvedr, Spain
Distance from station: ONO 222km
Actualización: Mon, 15-Jul-2024 7:30am CEST
Few Clouds
Few Clouds
 Viento del SSO
Viento: SSO 17 km/h
Temperatura: 15°C
Rocío: 13°C
Humedad: 88%
Barómetro: 1012 hPa
Clouds: Few Clouds
Visibility: 10 km
Cloud details: Few Clouds 914 m
2024/07/15 05:30 LECO 150530Z 21009KT 9999 FEW030 15/13 Q1012 NOSIG
LEVX - Vigo/Peinador, Spain
Distance from station: O 214km
Actualización: Mon, 15-Jul-2024 7:30am CEST
Muy nuboso
Muy nuboso
 Viento del varies
Viento: varies 4 km/h
Temperatura: 14°C
Rocío: 14°C
Humedad: 100%
Barómetro: 1014 hPa
Clouds: Muy nuboso
Visibility: 10 km
Cloud details: Few Clouds 30 m
Parcialmente nuboso 427 m
Muy nuboso 701 m
2024/07/15 05:30 LEVX 150530Z VRB02KT 9999 FEW001 SCT014 BKN023 14/14 Q1014 NOSIG